createdAt,value
2023-12-01T00:16:53.228Z,99547.27
2023-12-01T00:19:20.542Z,99537.86
2023-12-01T00:21:47.987Z,99541.67
2023-12-01T00:24:15.432Z,99535.63
2023-12-01T00:26:42.803Z,99551.31
2023-12-01T00:29:10.268Z,99560.27
2023-12-01T00:31:38.270Z,99570.51
2023-12-01T00:34:06.090Z,99566.48
2023-12-01T00:36:34.178Z,99555.82
2023-12-01T00:39:01.249Z,99553.14
2023-12-01T00:41:28.439Z,99537.40
2023-12-01T00:43:55.600Z,99513.98
2023-12-01T00:46:22.571Z,99490.68
2023-12-01T00:48:50.195Z,99486.81
2023-12-01T00:51:20.392Z,99485.48
2023-12-01T00:53:47.763Z,99480.83
2023-12-01T00:56:15.155Z,99470.66
2023-12-01T00:58:42.902Z,99474.15
2023-12-01T01:01:11.543Z,99467.25
2023-12-01T01:03:38.623Z,99444.90
2023-12-01T01:06:07.525Z,99435.15
2023-12-01T01:08:34.583Z,99420.09
2023-12-01T01:11:05.053Z,99433.35
2023-12-01T01:13:33.108Z,99433.50
2023-12-01T01:16:22.795Z,99430.60
2023-12-01T01:21:36.099Z,99412.03
2023-12-01T01:24:03.105Z,99403.91
2023-12-01T01:26:30.382Z,99407.48
2023-12-01T01:28:57.535Z,99401.02
2023-12-01T01:31:24.353Z,99399.48
2023-12-01T01:33:51.454Z,99415.20
2023-12-01T01:36:19.613Z,99430.25
2023-12-01T01:38:47.343Z,99428.95
2023-12-01T01:41:16.846Z,99427.05
2023-12-01T01:43:43.919Z,99425.29
2023-12-01T01:46:15.242Z,99426.21
2023-12-01T01:48:45.290Z,99420.53
2023-12-01T01:51:13.490Z,99404.68
2023-12-01T01:53:45.658Z,99385.09
2023-12-01T01:56:13.610Z,99379.16
2023-12-01T01:58:42.616Z,99378.56
2023-12-01T02:01:10.971Z,99377.73
2023-12-01T02:03:38.958Z,99381.41
2023-12-01T02:06:09.519Z,99367.88
2023-12-01T02:08:36.410Z,99357.54
2023-12-01T02:11:03.710Z,99357.37
2023-12-01T02:13:31.125Z,99361.23
2023-12-01T02:16:01.171Z,99345.17
2023-12-01T02:18:34.272Z,99339.34
2023-12-01T02:21:01.698Z,99311.55
2023-12-01T02:23:28.742Z,99296.41
2023-12-01T02:26:02.045Z,99285.27
2023-12-01T02:28:29.502Z,99272.93
2023-12-01T02:30:57.010Z,99258.18
2023-12-01T02:33:24.038Z,99263.92
2023-12-01T02:35:52.073Z,99253.80
2023-12-01T02:38:19.497Z,99261.23
2023-12-01T02:40:52.544Z,99251.72
2023-12-01T02:43:20.710Z,99258.02
2023-12-01T02:45:47.641Z,99249.85
2023-12-01T02:48:15.406Z,99237.69
2023-12-01T02:50:42.335Z,99234.13
2023-12-01T02:53:09.936Z,99238.85
2023-12-01T02:55:36.928Z,99242.86
2023-12-01T02:58:03.986Z,99242.36
2023-12-01T03:00:31.079Z,99240.29
2023-12-01T03:02:58.340Z,99224.39
2023-12-01T03:05:25.306Z,99220.73
2023-12-01T03:07:52.234Z,99217.52
2023-12-01T03:10:19.591Z,99194.04
2023-12-01T03:12:46.614Z,99194.33
2023-12-01T03:15:20.691Z,99187.07
2023-12-01T03:17:48.366Z,99168.27
2023-12-01T03:20:15.898Z,99155.12
2023-12-01T03:22:45.031Z,99148.19
2023-12-01T03:25:12.207Z,99140.77
2023-12-01T03:27:45.431Z,99127.16
2023-12-01T03:30:18.732Z,99107.89
2023-12-01T03:32:50.185Z,99103.85
2023-12-01T03:35:22.476Z,99094.21
2023-12-01T03:37:51.156Z,99077.40
2023-12-01T03:40:18.252Z,99077.52
2023-12-01T03:42:46.819Z,99078.54
2023-12-01T03:45:13.891Z,99083.56
2023-12-01T03:47:41.834Z,99090.48
2023-12-01T03:50:12.695Z,99090.15
2023-12-01T03:52:40.931Z,99088.55
2023-12-01T03:55:08.485Z,99078.05
2023-12-01T03:57:35.552Z,99081.55
2023-12-01T04:00:08.148Z,99081.55
2023-12-01T04:02:44.065Z,99083.84
2023-12-01T04:05:18.979Z,99076.26
2023-12-01T04:07:50.833Z,99079.32
2023-12-01T04:10:18.166Z,99074.86
2023-12-01T04:12:46.111Z,99067.73
2023-12-01T04:15:20.118Z,99065.36
2023-12-01T04:17:48.607Z,99063.04
2023-12-01T04:20:25.524Z,99061.13
2023-12-01T04:22:57.356Z,99048.57
2023-12-01T04:25:24.348Z,99040.31
2023-12-01T04:27:52.282Z,99028.05
2023-12-01T04:30:21.121Z,99016.95
2023-12-01T04:32:50.683Z,99014.84
2023-12-01T04:35:17.617Z,99009.06
2023-12-01T04:37:45.416Z,99000.69
2023-12-01T04:40:15.703Z,98987.95
2023-12-01T04:42:46.576Z,98973.52
2023-12-01T04:45:17.663Z,98966.77
2023-12-01T04:47:53.278Z,98948.45
2023-12-01T04:50:22.583Z,98939.65
2023-12-01T04:52:54.548Z,98938.98
2023-12-01T04:55:27.009Z,98928.42
2023-12-01T04:57:56.181Z,98915.46
2023-12-01T05:00:26.659Z,98906.15
2023-12-01T05:03:08.452Z,98907.56
2023-12-01T05:05:38.112Z,98900.39
2023-12-01T05:08:06.662Z,98894.78
2023-12-01T05:10:35.448Z,98892.80
2023-12-01T05:13:08.467Z,98893.98
2023-12-01T05:15:36.641Z,98896.00
2023-12-01T05:18:05.852Z,98891.27
2023-12-01T05:20:33.059Z,98882.95
2023-12-01T05:23:01.315Z,98878.43
2023-12-01T05:25:32.923Z,98878.63
2023-12-01T05:28:01.212Z,98889.52
2023-12-01T05:30:29.892Z,98889.65
2023-12-01T05:32:58.822Z,98881.66
2023-12-01T05:35:27.875Z,98885.64
2023-12-01T05:37:56.778Z,98890.34
2023-12-01T05:40:32.227Z,98898.02
2023-12-01T05:43:01.664Z,98903.63
2023-12-01T05:45:38.495Z,98899.66
2023-12-01T05:48:13.947Z,98911.44
2023-12-01T05:50:48.006Z,98911.15
2023-12-01T05:53:17.905Z,98906.85
2023-12-01T05:55:50.907Z,98905.21
2023-12-01T05:58:22.303Z,98910.53
2023-12-01T06:00:50.717Z,98907.90
2023-12-01T06:03:23.157Z,98903.54
2023-12-01T06:05:58.777Z,98893.66
2023-12-01T06:08:26.547Z,98889.30
2023-12-01T06:10:54.586Z,98894.63
2023-12-01T06:13:22.342Z,98907.88
2023-12-01T06:15:50.061Z,98906.58
2023-12-01T06:18:18.573Z,98909.55
2023-12-01T06:20:45.881Z,98887.53
2023-12-01T06:23:13.552Z,98877.73
2023-12-01T06:25:41.877Z,98884.34
2023-12-01T06:28:09.810Z,98892.97
2023-12-01T06:30:38.402Z,98879.98
2023-12-01T06:33:07.566Z,98887.24
2023-12-01T06:35:35.224Z,98886.54
2023-12-01T06:38:04.525Z,98877.42
2023-12-01T06:40:33.812Z,98880.07
2023-12-01T06:43:01.056Z,98878.77
2023-12-01T06:45:30.232Z,98876.75
2023-12-01T06:47:59.728Z,98878.02
2023-12-01T06:50:27.636Z,98882.05
2023-12-01T06:52:54.953Z,98894.79
2023-12-01T06:55:23.036Z,98899.77
2023-12-01T06:57:50.512Z,98898.85
2023-12-01T07:00:33.859Z,98888.27
2023-12-01T07:03:02.650Z,98896.51
2023-12-01T07:05:33.520Z,98894.86
2023-12-01T07:08:02.883Z,98883.19
2023-12-01T07:10:34.072Z,98877.48
2023-12-01T07:13:05.971Z,98872.49
2023-12-01T07:15:35.510Z,98870.77
2023-12-01T07:18:09.638Z,98873.19
2023-12-01T07:20:39.488Z,98866.08
2023-12-01T07:23:09.603Z,98858.63
2023-12-01T07:25:47.704Z,98859.04
2023-12-01T07:28:17.740Z,98857.44
2023-12-01T07:30:47.561Z,98853.44
2023-12-01T07:33:18.460Z,98859.83
2023-12-01T07:35:48.500Z,98859.34
2023-12-01T07:38:19.537Z,98854.30
2023-12-01T07:40:49.268Z,98850.02
2023-12-01T07:43:20.585Z,98861.48
2023-12-01T07:45:51.554Z,98870.58
2023-12-01T07:48:24.680Z,98870.94
2023-12-01T07:50:55.826Z,98872.50
2023-12-01T07:53:25.739Z,98866.31
2023-12-01T07:55:55.615Z,98860.85
2023-12-01T07:58:26.701Z,98851.77
2023-12-01T08:01:01.789Z,98846.23
2023-12-01T08:03:32.670Z,98845.34
2023-12-01T08:12:28.091Z,98831.77
2023-12-01T08:14:59.677Z,98832.27
2023-12-01T08:17:28.443Z,98837.61
2023-12-01T08:19:57.843Z,98840.05
2023-12-01T08:22:26.680Z,98845.89
2023-12-01T08:24:56.205Z,98852.58
2023-12-01T08:27:25.663Z,98856.42
2023-12-01T08:29:54.549Z,98862.16
2023-12-01T08:32:25.442Z,98860.14
2023-12-01T08:34:57.461Z,98856.73
2023-12-01T08:37:33.144Z,98854.86
2023-12-01T08:40:05.618Z,98861.34
2023-12-01T08:42:36.695Z,98879.91
2023-12-01T08:45:09.197Z,98873.16
2023-12-01T08:47:40.173Z,98869.42
2023-12-01T08:50:11.397Z,98862.23
2023-12-01T08:52:44.744Z,98863.52
2023-12-01T08:55:14.304Z,98870.21
2023-12-01T08:57:44.438Z,98863.59
2023-12-01T09:00:21.323Z,98851.15
2023-12-01T09:02:52.127Z,98853.53
2023-12-01T09:05:23.268Z,98848.10
2023-12-01T09:07:55.094Z,98835.49
2023-12-01T09:10:25.693Z,98835.42
2023-12-01T09:13:00.853Z,98841.45
2023-12-01T09:15:32.791Z,98844.61
2023-12-01T09:18:00.628Z,98846.98
2023-12-01T09:20:28.375Z,98847.25
2023-12-01T09:22:56.154Z,98845.48
2023-12-01T09:25:29.736Z,98848.20
2023-12-01T09:27:58.083Z,98845.94
2023-12-01T09:30:25.814Z,98842.36
2023-12-01T09:32:53.240Z,98848.96
2023-12-01T09:35:54.060Z,98848.03
2023-12-01T09:38:11.818Z,98847.66
2023-12-01T09:40:41.849Z,98848.74
2023-12-01T09:43:09.072Z,98846.85
2023-12-01T09:45:36.898Z,98847.23
2023-12-01T09:48:05.193Z,98864.04
2023-12-01T09:50:32.439Z,98877.23
2023-12-01T09:52:59.581Z,98876.77
2023-12-01T09:55:26.615Z,98861.69
2023-12-01T09:57:53.854Z,98847.71
2023-12-01T10:00:22.397Z,98833.42
2023-12-01T10:02:50.603Z,98822.59
2023-12-01T10:05:21.111Z,98814.27
2023-12-01T10:07:53.532Z,98820.50
2023-12-01T10:10:23.204Z,98830.38
2023-12-01T10:13:06.288Z,98835.11
2023-12-01T10:15:35.020Z,98833.98
2023-12-01T10:18:16.561Z,98835.27
2023-12-01T10:20:58.506Z,98830.30
2023-12-01T10:23:26.099Z,98834.10
2023-12-01T10:25:53.308Z,98827.98
2023-12-01T10:28:21.623Z,98829.20
2023-12-01T10:30:55.993Z,98824.08
2023-12-01T10:33:23.995Z,98821.09
2023-12-01T10:36:18.404Z,98818.89
2023-12-01T10:38:45.679Z,98820.99
2023-12-01T10:41:12.972Z,98818.98
2023-12-01T10:43:40.247Z,98818.27
2023-12-01T10:46:07.971Z,98815.89
2023-12-01T10:48:35.837Z,98817.89
2023-12-01T10:51:06.772Z,98821.12
2023-12-01T10:53:35.466Z,98821.91
2023-12-01T10:56:05.097Z,98838.52
2023-12-01T10:58:35.344Z,98850.67
2023-12-01T11:01:04.323Z,98854.30
2023-12-01T11:03:35.432Z,98876.30
2023-12-01T11:06:13.470Z,98868.91
2023-12-01T11:08:48.845Z,98859.56
2023-12-01T11:11:39.688Z,98851.48
2023-12-01T11:14:18.097Z,98838.27
2023-12-01T11:16:47.888Z,98840.66
2023-12-01T11:19:18.993Z,98830.67
2023-12-01T11:21:50.192Z,98825.43
2023-12-01T11:24:31.952Z,98838.74
2023-12-01T11:27:06.486Z,98840.94
2023-12-01T11:29:39.833Z,98842.80
2023-12-01T11:32:08.092Z,98849.00
2023-12-01T11:34:35.527Z,98854.23
2023-12-01T11:37:07.449Z,98861.11
2023-12-01T11:39:35.476Z,98855.50
2023-12-01T11:42:03.037Z,98858.61
2023-12-01T11:44:41.507Z,98874.91
2023-12-01T11:47:15.306Z,98875.06
2023-12-01T11:49:45.445Z,98873.66
2023-12-01T11:52:24.861Z,98894.07
2023-12-01T11:54:56.575Z,98893.69
2023-12-01T11:57:27.700Z,98899.02
2023-12-01T12:00:00.937Z,98895.17
2023-12-01T12:02:32.350Z,98898.80
2023-12-01T12:05:08.468Z,98909.95
2023-12-01T12:07:39.572Z,98903.77
2023-12-01T12:10:19.372Z,98896.55
2023-12-01T12:12:49.290Z,98900.89
2023-12-01T12:15:25.132Z,98893.61
2023-12-01T12:17:53.551Z,98874.86
2023-12-01T12:20:25.422Z,98874.41
2023-12-01T12:24:47.830Z,98899.31
2023-12-01T12:27:21.062Z,98904.39
2023-12-01T12:29:54.381Z,98912.16
2023-12-01T12:32:24.534Z,98914.31
2023-12-01T12:34:55.914Z,98914.70
2023-12-01T12:37:27.544Z,98915.79
2023-12-01T12:39:59.375Z,98911.39
2023-12-01T12:42:32.075Z,98919.11
2023-12-01T12:45:06.880Z,98923.48
2023-12-01T12:55:41.765Z,98973.13
2023-12-01T12:58:14.831Z,98985.14
2023-12-01T13:01:06.346Z,98986.89
2023-12-01T13:03:35.118Z,98989.39
2023-12-01T13:06:04.209Z,98994.12
2023-12-01T13:09:00.946Z,98992.55
2023-12-01T13:11:35.203Z,98996.11
2023-12-01T13:14:17.604Z,98996.23
2023-12-01T13:16:55.419Z,98998.27
2023-12-01T13:19:26.150Z,99001.52
2023-12-01T13:22:23.336Z,99004.14
2023-12-01T13:24:51.242Z,99008.23
2023-12-01T13:27:20.390Z,99008.99
2023-12-01T13:29:48.534Z,99017.15
2023-12-01T13:32:20.195Z,99014.03
2023-12-01T13:34:50.390Z,99013.02
2023-12-01T13:44:05.843Z,99022.61
2023-12-01T13:46:48.594Z,99040.17
2023-12-01T13:49:18.891Z,99051.70
2023-12-01T13:51:50.633Z,99051.45
2023-12-01T13:54:21.052Z,99065.48
2023-12-01T13:56:52.399Z,99082.50
2023-12-01T13:59:27.732Z,99079.77
2023-12-01T14:01:57.774Z,99083.63
2023-12-01T14:04:31.576Z,99083.18
2023-12-01T14:07:09.681Z,99075.48
2023-12-01T14:09:40.228Z,99087.89
2023-12-01T14:12:15.711Z,99099.30
2023-12-01T14:14:47.724Z,99101.30
2023-12-01T14:17:40.742Z,99103.64
2023-12-01T14:20:41.454Z,99108.35
2023-12-01T14:23:44.762Z,99107.59
2023-12-01T14:26:15.024Z,99107.61
2023-12-01T14:29:04.636Z,99104.56
2023-12-01T14:31:41.831Z,99097.81
2023-12-01T14:37:21.486Z,99099.27
2023-12-01T14:39:51.722Z,99100.36
2023-12-01T14:42:22.577Z,99106.98
2023-12-01T14:44:56.517Z,99099.77
2023-12-01T14:47:29.331Z,99097.94
2023-12-01T14:50:07.329Z,99102.80
2023-12-01T14:52:36.492Z,99098.90
2023-12-01T14:55:09.703Z,99094.00
2023-12-01T14:57:52.461Z,99093.92
2023-12-01T15:00:22.427Z,99078.05
2023-12-01T15:02:52.557Z,99072.00
2023-12-01T15:05:25.592Z,99082.37
2023-12-01T15:07:57.092Z,99098.59
2023-12-01T15:10:28.420Z,99094.11
2023-12-01T15:13:14.850Z,99099.32
2023-12-01T15:15:52.519Z,99100.95
2023-12-01T15:19:17.619Z,99105.04
2023-12-01T15:21:55.932Z,99095.02
2023-12-01T15:24:23.557Z,99090.04
2023-12-01T15:26:51.135Z,99078.86
2023-12-01T15:29:18.606Z,99097.79
